Accueil
METAR-TAF:

METAR-TAF

Aéroports :

Aéroport international de Shenzhen Bao'an

Shenzhen, Chine

latitude: 22-33N, longitude: 114-06E, altitude: 18 m

Observation

Le bulletin a été fait il y a 1 heure et 3 minutes, à 22:00 UTC
Vent 4 kt de nord-est, variant entre nord et est/sud-est
Température 17°C
Humidité 82%
Pression 1025 hPa
Visibilité 10 km ou plus
pas de nuages en-dessous de 1500 mètres et pas de cumulonimbus.

METAR: ZGSZ 212200Z 05002MPS 010V110 CAVOK 17/14 Q1025 NOSIG

Heure: 07:03 (23:03 UTC)

Prévision

Le bulletin a été fait il y a 13 heures et 52 minutes, à 09:11 UTC
Prévision valable du 21 à 12 UTC au 22 à 12 UTC
Vent 8 kt de est/sud-est
Visibilité: 8000 m
Quelques nuages à une hauteur de 4000 ft
Evoluant progressivement
du 22 à 02 UTC au 22 à 03 UTC
Vent 8 kt de sud/sud-ouest

TAF: ZGSZ 210911Z 2112/2212 11004MPS 8000 FEW040 TX23/2207Z TN16/2122Z BECMG 2202/2203 20004MPS

Observations et prévisions météorologiques de plus de 4000 aéroports (messages METAR et TAF).

Les stations disponibles sont représentées par des disques jaunes et rouges sur la carte.

Passer la souris dessus pour voir le nom de la station.

Cliquer dessus pour voir les observations et prévisions météorologiques.

Pour changer de carte: cliquez sur les boutons verts avec une croix noire pour zoomer, sur le bouton vert avec un tiret pour effectuer un zoom arrière, ou sur les flèches vertes pour les cartes adjacentes.


METAR-TAF: